createdAt,value
2023-01-08T16:25:26.593Z,6.47
2023-01-08T16:27:54.244Z,3.97
2023-01-08T16:30:21.326Z,4.20
2023-01-08T16:32:55.052Z,4.45
2023-01-08T16:35:22.509Z,4.75
2023-01-08T16:37:49.600Z,3.00
2023-01-08T16:40:17.609Z,2.60
2023-01-08T16:42:44.772Z,3.55
2023-01-08T16:45:12.526Z,3.70
2023-01-08T16:47:41.560Z,2.88
2023-01-08T16:50:15.369Z,2.88
2023-01-08T16:52:43.733Z,3.72
2023-01-08T16:55:11.681Z,2.97
2023-01-08T16:57:39.044Z,3.58
2023-01-08T17:00:07.173Z,2.45
2023-01-08T17:02:34.516Z,4.35
2023-01-08T17:05:05.296Z,3.60
2023-01-08T17:07:33.141Z,2.80
2023-01-08T17:10:00.775Z,4.70
2023-01-08T17:12:28.013Z,20.67
2023-01-08T17:14:59.873Z,25.77
2023-01-08T17:17:29.748Z,25.52
2023-01-08T17:20:00.099Z,8.13
2023-01-08T17:22:31.236Z,4.93
2023-01-08T17:24:59.134Z,3.90
2023-01-08T17:27:27.077Z,3.65
2023-01-08T17:29:55.300Z,3.08
2023-01-08T18:22:11.285Z,4.30
2023-01-08T18:24:39.905Z,3.30
2023-01-08T18:27:07.696Z,3.47
2023-01-08T18:29:35.037Z,4.00
2023-01-08T18:32:03.245Z,2.75
2023-01-08T21:05:03.741Z,5.05
2023-01-08T21:07:33.592Z,4.82
2023-01-08T21:10:04.145Z,3.10
2023-01-08T21:12:32.204Z,4.45
2023-01-08T21:14:59.689Z,3.25
2023-01-08T21:17:29.599Z,3.55
2023-01-08T21:19:57.173Z,3.70
2023-01-08T21:22:25.518Z,3.53
2023-01-08T21:24:53.671Z,2.58
2023-01-08T21:27:25.794Z,4.38
2023-01-08T21:29:57.586Z,2.90
2023-01-08T21:32:35.769Z,3.00
2023-01-08T21:35:04.936Z,3.90
2023-01-08T21:37:34.095Z,3.78
2023-01-08T21:40:01.128Z,2.90
2023-01-08T21:48:03.437Z,4.32
2023-01-08T21:53:24.529Z,2.88
2023-01-08T21:55:51.718Z,3.38
2023-01-08T21:58:18.815Z,2.30
2023-01-08T22:00:46.075Z,2.70
2023-01-08T22:03:13.723Z,2.58
2023-01-08T22:05:40.969Z,2.72
2023-01-08T22:08:09.622Z,2.20
2023-01-08T22:10:36.892Z,3.10
2023-01-08T22:13:03.937Z,2.78
